sensor_id;sensor_type;location;lat;lon;timestamp;temperature;humidity
19000;DHT22;9633;50.980;13.850;2024-03-17T00:01:29;5.60;66.20
19000;DHT22;9633;50.980;13.850;2024-03-17T00:03:01;5.50;70.20
19000;DHT22;9633;50.980;13.850;2024-03-17T00:04:32;5.40;79.60
19000;DHT22;9633;50.980;13.850;2024-03-17T00:06:03;5.40;83.80
19000;DHT22;9633;50.980;13.850;2024-03-17T00:07:36;5.40;85.90
19000;DHT22;9633;50.980;13.850;2024-03-17T00:09:07;5.30;85.90
19000;DHT22;9633;50.980;13.850;2024-03-17T00:10:40;5.30;91.50
19000;DHT22;9633;50.980;13.850;2024-03-17T00:12:12;5.10;93.40
19000;DHT22;9633;50.980;13.850;2024-03-17T00:13:43;5.00;97.70
19000;DHT22;9633;50.980;13.850;2024-03-17T00:15:14;4.90;98.20
19000;DHT22;9633;50.980;13.850;2024-03-17T00:16:47;4.80;99.90
19000;DHT22;9633;50.980;13.850;2024-03-17T00:18:19;4.90;99.90
19000;DHT22;9633;50.980;13.850;2024-03-17T00:19:50;4.70;99.90
19000;DHT22;9633;50.980;13.850;2024-03-17T00:21:22;4.60;99.90
19000;DHT22;9633;50.980;13.850;2024-03-17T00:22:53;4.50;99.90
19000;DHT22;9633;50.980;13.850;2024-03-17T00:24:25;4.50;99.90
19000;DHT22;9633;50.980;13.850;2024-03-17T00:25:56;4.40;99.90
19000;DHT22;9633;50.980;13.850;2024-03-17T00:27:28;4.50;99.90
19000;DHT22;9633;50.980;13.850;2024-03-17T00:29:00;4.40;99.90
19000;DHT22;9633;50.980;13.850;2024-03-17T00:30:31;4.40;99.90
19000;DHT22;9633;50.980;13.850;2024-03-17T00:32:05;4.30;99.90
19000;DHT22;9633;50.980;13.850;2024-03-17T00:33:37;4.40;99.90
19000;DHT22;9633;50.980;13.850;2024-03-17T00:35:09;4.40;99.90
19000;DHT22;9633;50.980;13.850;2024-03-17T00:36:45;4.30;99.90
19000;DHT22;9633;50.980;13.850;2024-03-17T00:38:16;4.30;99.90
19000;DHT22;9633;50.980;13.850;2024-03-17T00:39:49;4.30;99.90
19000;DHT22;9633;50.980;13.850;2024-03-17T00:41:21;4.50;99.90
19000;DHT22;9633;50.980;13.850;2024-03-17T00:42:52;4.60;99.90
19000;DHT22;9633;50.980;13.850;2024-03-17T00:44:25;4.50;99.90
19000;DHT22;9633;50.980;13.850;2024-03-17T00:45:56;4.40;99.90
19000;DHT22;9633;50.980;13.850;2024-03-17T00:47:28;4.40;99.90
19000;DHT22;9633;50.980;13.850;2024-03-17T00:49:01;4.40;99.90
19000;DHT22;9633;50.980;13.850;2024-03-17T00:50:32;4.30;99.90
19000;DHT22;9633;50.980;13.850;2024-03-17T00:52:04;4.30;99.90
19000;DHT22;9633;50.980;13.850;2024-03-17T00:53:35;4.20;99.90
19000;DHT22;9633;50.980;13.850;2024-03-17T00:55:07;4.40;99.90
19000;DHT22;9633;50.980;13.850;2024-03-17T00:56:40;4.60;99.90
19000;DHT22;9633;50.980;13.850;2024-03-17T00:58:11;4.60;99.90
19000;DHT22;9633;50.980;13.850;2024-03-17T00:59:44;4.80;99.90
19000;DHT22;9633;50.980;13.850;2024-03-17T01:01:15;4.80;99.90
19000;DHT22;9633;50.980;13.850;2024-03-17T01:02:48;4.80;99.90
19000;DHT22;9633;50.980;13.850;2024-03-17T01:04:19;4.80;99.90
19000;DHT22;9633;50.980;13.850;2024-03-17T01:05:51;4.80;99.90
19000;DHT22;9633;50.980;13.850;2024-03-17T01:07:23;4.80;99.90
19000;DHT22;9633;50.980;13.850;2024-03-17T01:08:54;4.90;99.90
19000;DHT22;9633;50.980;13.850;2024-03-17T01:10:26;5.00;99.90
19000;DHT22;9633;50.980;13.850;2024-03-17T01:11:57;5.00;99.90
19000;DHT22;9633;50.980;13.850;2024-03-17T01:13:28;5.00;99.90
19000;DHT22;9633;50.980;13.850;2024-03-17T01:15:03;4.90;99.90
19000;DHT22;9633;50.980;13.850;2024-03-17T01:16:34;4.80;99.90
19000;DHT22;9633;50.980;13.850;2024-03-17T01:18:08;4.80;99.90
19000;DHT22;9633;50.980;13.850;2024-03-17T01:19:40;4.90;99.90
19000;DHT22;9633;50.980;13.850;2024-03-17T01:21:11;5.00;99.90
19000;DHT22;9633;50.980;13.850;2024-03-17T01:22:44;4.90;99.90
19000;DHT22;9633;50.980;13.850;2024-03-17T01:24:16;4.90;99.90
19000;DHT22;9633;50.980;13.850;2024-03-17T01:25:47;4.90;99.90
19000;DHT22;9633;50.980;13.850;2024-03-17T01:27:19;4.80;99.90
19000;DHT22;9633;50.980;13.850;2024-03-17T01:28:50;4.80;99.90
19000;DHT22;9633;50.980;13.850;2024-03-17T01:30:22;4.80;99.90
19000;DHT22;9633;50.980;13.850;2024-03-17T01:31:54;4.80;99.90
19000;DHT22;9633;50.980;13.850;2024-03-17T01:33:27;4.80;99.90
19000;DHT22;9633;50.980;13.850;2024-03-17T01:34:59;4.70;99.90
19000;DHT22;9633;50.980;13.850;2024-03-17T01:36:30;4.70;99.90
19000;DHT22;9633;50.980;13.850;2024-03-17T01:38:03;4.70;99.90
19000;DHT22;9633;50.980;13.850;2024-03-17T01:39:35;4.60;99.90
19000;DHT22;9633;50.980;13.850;2024-03-17T01:41:07;4.50;99.90
19000;DHT22;9633;50.980;13.850;2024-03-17T01:42:38;4.40;99.90
19000;DHT22;9633;50.980;13.850;2024-03-17T01:44:21;4.20;99.90
19000;DHT22;9633;50.980;13.850;2024-03-17T01:45:54;4.00;99.90
19000;DHT22;9633;50.980;13.850;2024-03-17T01:47:25;3.80;99.90
19000;DHT22;9633;50.980;13.850;2024-03-17T01:48:59;3.70;99.90
19000;DHT22;9633;50.980;13.850;2024-03-17T01:50:32;3.50;99.90
19000;DHT22;9633;50.980;13.850;2024-03-17T01:52:04;3.60;99.90
19000;DHT22;9633;50.980;13.850;2024-03-17T01:53:37;3.70;99.90
19000;DHT22;9633;50.980;13.850;2024-03-17T01:55:08;4.00;99.90
19000;DHT22;9633;50.980;13.850;2024-03-17T01:56:40;4.00;99.90
19000;DHT22;9633;50.980;13.850;2024-03-17T01:58:12;3.90;99.90
19000;DHT22;9633;50.980;13.850;2024-03-17T01:59:44;3.70;99.90
19000;DHT22;9633;50.980;13.850;2024-03-17T02:01:15;3.60;99.90
19000;DHT22;9633;50.980;13.850;2024-03-17T02:02:48;3.50;99.90
19000;DHT22;9633;50.980;13.850;2024-03-17T02:04:20;3.30;99.90
19000;DHT22;9633;50.980;13.850;2024-03-17T02:05:53;3.30;99.90
19000;DHT22;9633;50.980;13.850;2024-03-17T02:07:25;3.30;99.90
19000;DHT22;9633;50.980;13.850;2024-03-17T02:08:56;3.30;99.90
19000;DHT22;9633;50.980;13.850;2024-03-17T02:10:28;3.20;99.90
19000;DHT22;9633;50.980;13.850;2024-03-17T02:11:59;3.20;99.90
19000;DHT22;9633;50.980;13.850;2024-03-17T02:13:30;3.20;99.90
19000;DHT22;9633;50.980;13.850;2024-03-17T02:15:03;3.30;99.90
19000;DHT22;9633;50.980;13.850;2024-03-17T02:16:36;3.20;99.90
19000;DHT22;9633;50.980;13.850;2024-03-17T02:18:07;3.20;99.90
19000;DHT22;9633;50.980;13.850;2024-03-17T02:19:40;3.20;99.90
19000;DHT22;9633;50.980;13.850;2024-03-17T02:21:12;3.10;99.90
19000;DHT22;9633;50.980;13.850;2024-03-17T02:22:44;3.00;99.90
19000;DHT22;9633;50.980;13.850;2024-03-17T02:24:16;3.00;99.90
19000;DHT22;9633;50.980;13.850;2024-03-17T02:25:47;3.00;99.90
19000;DHT22;9633;50.980;13.850;2024-03-17T02:27:19;3.10;99.90
19000;DHT22;9633;50.980;13.850;2024-03-17T02:28:51;3.20;99.90
19000;DHT22;9633;50.980;13.850;2024-03-17T02:30:22;3.20;99.90
19000;DHT22;9633;50.980;13.850;2024-03-17T02:31:55;3.30;99.90
19000;DHT22;9633;50.980;13.850;2024-03-17T02:33:26;3.30;99.90
19000;DHT22;9633;50.980;13.850;2024-03-17T02:34:57;3.30;99.90
19000;DHT22;9633;50.980;13.850;2024-03-17T02:36:29;3.30;99.90
19000;DHT22;9633;50.980;13.850;2024-03-17T02:38:02;3.40;99.90
19000;DHT22;9633;50.980;13.850;2024-03-17T02:39:33;3.40;99.90
19000;DHT22;9633;50.980;13.850;2024-03-17T02:41:05;3.40;99.90
19000;DHT22;9633;50.980;13.850;2024-03-17T02:42:36;3.40;99.90
19000;DHT22;9633;50.980;13.850;2024-03-17T02:44:09;3.40;99.90
19000;DHT22;9633;50.980;13.850;2024-03-17T02:45:43;3.50;99.90
19000;DHT22;9633;50.980;13.850;2024-03-17T02:47:15;3.50;99.90
19000;DHT22;9633;50.980;13.850;2024-03-17T02:48:49;3.50;99.90
19000;DHT22;9633;50.980;13.850;2024-03-17T02:50:22;3.60;99.90
19000;DHT22;9633;50.980;13.850;2024-03-17T02:51:53;3.60;99.90
19000;DHT22;9633;50.980;13.850;2024-03-17T02:53:27;3.70;99.90
19000;DHT22;9633;50.980;13.850;2024-03-17T02:54:58;3.70;99.90
19000;DHT22;9633;50.980;13.850;2024-03-17T02:56:30;3.80;99.90
19000;DHT22;9633;50.980;13.850;2024-03-17T02:58:01;3.80;99.90
19000;DHT22;9633;50.980;13.850;2024-03-17T02:59:33;3.80;99.90
19000;DHT22;9633;50.980;13.850;2024-03-17T03:01:05;3.80;99.90
19000;DHT22;9633;50.980;13.850;2024-03-17T03:02:37;3.80;99.90
19000;DHT22;9633;50.980;13.850;2024-03-17T03:04:09;3.80;99.90
19000;DHT22;9633;50.980;13.850;2024-03-17T03:05:41;3.90;99.90
19000;DHT22;9633;50.980;13.850;2024-03-17T03:07:12;3.80;99.90
19000;DHT22;9633;50.980;13.850;2024-03-17T03:08:45;3.80;99.90
19000;DHT22;9633;50.980;13.850;2024-03-17T03:10:19;3.90;99.90
19000;DHT22;9633;50.980;13.850;2024-03-17T03:11:51;3.90;99.90
19000;DHT22;9633;50.980;13.850;2024-03-17T03:13:22;3.90;99.90
19000;DHT22;9633;50.980;13.850;2024-03-17T03:14:54;3.80;99.90
19000;DHT22;9633;50.980;13.850;2024-03-17T03:16:26;3.80;99.90
19000;DHT22;9633;50.980;13.850;2024-03-17T03:17:58;3.80;99.90
19000;DHT22;9633;50.980;13.850;2024-03-17T03:19:29;3.80;99.90
19000;DHT22;9633;50.980;13.850;2024-03-17T03:21:01;3.90;99.90
19000;DHT22;9633;50.980;13.850;2024-03-17T03:22:33;4.00;99.90
19000;DHT22;9633;50.980;13.850;2024-03-17T03:24:06;3.90;99.90
19000;DHT22;9633;50.980;13.850;2024-03-17T03:25:37;3.90;99.90
19000;DHT22;9633;50.980;13.850;2024-03-17T03:27:09;3.90;99.90
19000;DHT22;9633;50.980;13.850;2024-03-17T03:28:40;3.80;99.90
19000;DHT22;9633;50.980;13.850;2024-03-17T03:30:13;3.80;99.90
19000;DHT22;9633;50.980;13.850;2024-03-17T03:31:46;3.80;99.90
19000;DHT22;9633;50.980;13.850;2024-03-17T03:33:19;3.70;99.90
19000;DHT22;9633;50.980;13.850;2024-03-17T03:34:50;3.70;99.90
19000;DHT22;9633;50.980;13.850;2024-03-17T03:36:22;3.80;99.90
19000;DHT22;9633;50.980;13.850;2024-03-17T03:37:53;3.80;99.90
19000;DHT22;9633;50.980;13.850;2024-03-17T03:39:27;3.80;99.90
19000;DHT22;9633;50.980;13.850;2024-03-17T03:41:07;3.80;99.90
19000;DHT22;9633;50.980;13.850;2024-03-17T03:42:39;3.90;99.90
19000;DHT22;9633;50.980;13.850;2024-03-17T03:44:10;3.90;99.90
19000;DHT22;9633;50.980;13.850;2024-03-17T03:45:42;4.00;99.90
19000;DHT22;9633;50.980;13.850;2024-03-17T03:47:13;4.10;99.90
19000;DHT22;9633;50.980;13.850;2024-03-17T03:48:46;4.10;99.90
19000;DHT22;9633;50.980;13.850;2024-03-17T03:50:19;4.20;99.90
19000;DHT22;9633;50.980;13.850;2024-03-17T03:51:51;4.20;99.90
19000;DHT22;9633;50.980;13.850;2024-03-17T03:53:22;4.30;99.90
19000;DHT22;9633;50.980;13.850;2024-03-17T03:54:56;4.30;99.90
19000;DHT22;9633;50.980;13.850;2024-03-17T03:56:28;4.40;99.90
19000;DHT22;9633;50.980;13.850;2024-03-17T03:58:00;4.40;99.90
19000;DHT22;9633;50.980;13.850;2024-03-17T03:59:31;4.40;99.90
19000;DHT22;9633;50.980;13.850;2024-03-17T04:01:04;4.50;99.90
19000;DHT22;9633;50.980;13.850;2024-03-17T04:02:36;4.50;99.90
19000;DHT22;9633;50.980;13.850;2024-03-17T04:04:07;4.50;99.90
19000;DHT22;9633;50.980;13.850;2024-03-17T04:05:40;4.50;99.90
19000;DHT22;9633;50.980;13.850;2024-03-17T04:07:11;4.50;99.90
19000;DHT22;9633;50.980;13.850;2024-03-17T04:08:43;4.50;99.90
19000;DHT22;9633;50.980;13.850;2024-03-17T04:10:17;4.60;99.90
19000;DHT22;9633;50.980;13.850;2024-03-17T04:11:51;4.60;99.90
19000;DHT22;9633;50.980;13.850;2024-03-17T04:13:23;4.50;99.90
19000;DHT22;9633;50.980;13.850;2024-03-17T04:14:55;4.60;99.90
19000;DHT22;9633;50.980;13.850;2024-03-17T04:16:26;4.60;99.90
19000;DHT22;9633;50.980;13.850;2024-03-17T04:17:58;4.60;99.90
19000;DHT22;9633;50.980;13.850;2024-03-17T04:19:29;4.50;99.90
19000;DHT22;9633;50.980;13.850;2024-03-17T04:21:03;4.60;99.90
19000;DHT22;9633;50.980;13.850;2024-03-17T04:22:35;4.60;99.90
19000;DHT22;9633;50.980;13.850;2024-03-17T04:24:07;4.60;99.90
19000;DHT22;9633;50.980;13.850;2024-03-17T04:25:40;4.60;99.90
19000;DHT22;9633;50.980;13.850;2024-03-17T04:27:14;4.60;99.90
19000;DHT22;9633;50.980;13.850;2024-03-17T04:28:46;4.60;99.90
19000;DHT22;9633;50.980;13.850;2024-03-17T04:30:17;4.60;99.90
19000;DHT22;9633;50.980;13.850;2024-03-17T04:31:49;4.60;99.90
19000;DHT22;9633;50.980;13.850;2024-03-17T04:33:20;4.60;99.90
19000;DHT22;9633;50.980;13.850;2024-03-17T04:34:52;4.60;99.90
19000;DHT22;9633;50.980;13.850;2024-03-17T04:36:23;4.60;99.90
19000;DHT22;9633;50.980;13.850;2024-03-17T04:37:55;4.60;99.90
19000;DHT22;9633;50.980;13.850;2024-03-17T04:39:28;4.60;99.90
19000;DHT22;9633;50.980;13.850;2024-03-17T04:41:00;4.70;99.90
19000;DHT22;9633;50.980;13.850;2024-03-17T04:42:36;4.70;99.90
19000;DHT22;9633;50.980;13.850;2024-03-17T04:44:09;4.70;99.90
19000;DHT22;9633;50.980;13.850;2024-03-17T04:45:41;4.60;99.90
19000;DHT22;9633;50.980;13.850;2024-03-17T04:47:13;4.60;99.90
19000;DHT22;9633;50.980;13.850;2024-03-17T04:48:45;4.60;99.90
19000;DHT22;9633;50.980;13.850;2024-03-17T04:50:17;4.60;99.90
19000;DHT22;9633;50.980;13.850;2024-03-17T04:51:48;4.60;99.90
19000;DHT22;9633;50.980;13.850;2024-03-17T04:53:20;4.70;99.90
19000;DHT22;9633;50.980;13.850;2024-03-17T04:54:51;4.70;99.90
19000;DHT22;9633;50.980;13.850;2024-03-17T04:56:25;4.70;99.90
19000;DHT22;9633;50.980;13.850;2024-03-17T04:57:56;4.70;99.90
19000;DHT22;9633;50.980;13.850;2024-03-17T04:59:28;4.70;99.90
19000;DHT22;9633;50.980;13.850;2024-03-17T05:01:06;4.70;99.90
19000;DHT22;9633;50.980;13.850;2024-03-17T05:02:39;4.70;99.90
19000;DHT22;9633;50.980;13.850;2024-03-17T05:04:10;4.70;99.90
19000;DHT22;9633;50.980;13.850;2024-03-17T05:05:42;4.70;99.90
19000;DHT22;9633;50.980;13.850;2024-03-17T05:07:13;4.70;99.90
19000;DHT22;9633;50.980;13.850;2024-03-17T05:08:46;4.70;99.90
19000;DHT22;9633;50.980;13.850;2024-03-17T05:10:17;4.70;99.90
19000;DHT22;9633;50.980;13.850;2024-03-17T05:11:51;4.70;99.90
19000;DHT22;9633;50.980;13.850;2024-03-17T05:13:23;4.70;99.90
19000;DHT22;9633;50.980;13.850;2024-03-17T05:14:55;4.80;99.90
19000;DHT22;9633;50.980;13.850;2024-03-17T05:16:26;4.70;99.90
19000;DHT22;9633;50.980;13.850;2024-03-17T05:18:00;4.80;99.90
19000;DHT22;9633;50.980;13.850;2024-03-17T05:19:31;4.80;99.90
19000;DHT22;9633;50.980;13.850;2024-03-17T05:21:04;4.90;99.90
19000;DHT22;9633;50.980;13.850;2024-03-17T05:22:36;4.90;99.90
19000;DHT22;9633;50.980;13.850;2024-03-17T05:24:08;4.90;99.90
19000;DHT22;9633;50.980;13.850;2024-03-17T05:25:39;5.00;99.90
19000;DHT22;9633;50.980;13.850;2024-03-17T05:27:13;5.00;99.90
19000;DHT22;9633;50.980;13.850;2024-03-17T05:28:44;5.00;99.90
19000;DHT22;9633;50.980;13.850;2024-03-17T05:30:16;5.00;99.90
19000;DHT22;9633;50.980;13.850;2024-03-17T05:31:49;5.00;99.90
19000;DHT22;9633;50.980;13.850;2024-03-17T05:33:24;5.00;99.90
19000;DHT22;9633;50.980;13.850;2024-03-17T05:34:56;5.00;99.90
19000;DHT22;9633;50.980;13.850;2024-03-17T05:36:28;5.00;99.90
19000;DHT22;9633;50.980;13.850;2024-03-17T05:38:03;5.00;99.90
19000;DHT22;9633;50.980;13.850;2024-03-17T05:39:35;5.00;99.90
19000;DHT22;9633;50.980;13.850;2024-03-17T05:41:07;5.00;99.90
19000;DHT22;9633;50.980;13.850;2024-03-17T05:42:42;5.00;99.90
19000;DHT22;9633;50.980;13.850;2024-03-17T05:44:15;5.00;99.90
19000;DHT22;9633;50.980;13.850;2024-03-17T05:45:47;5.10;99.90
19000;DHT22;9633;50.980;13.850;2024-03-17T05:47:19;5.10;99.90
19000;DHT22;9633;50.980;13.850;2024-03-17T05:48:51;5.10;99.90
19000;DHT22;9633;50.980;13.850;2024-03-17T05:50:22;5.20;99.90
19000;DHT22;9633;50.980;13.850;2024-03-17T05:51:54;5.20;99.90
19000;DHT22;9633;50.980;13.850;2024-03-17T05:53:25;5.20;99.90
19000;DHT22;9633;50.980;13.850;2024-03-17T05:54:57;5.30;99.90
19000;DHT22;9633;50.980;13.850;2024-03-17T05:56:28;5.30;99.90
19000;DHT22;9633;50.980;13.850;2024-03-17T05:58:02;5.40;99.90
19000;DHT22;9633;50.980;13.850;2024-03-17T05:59:33;5.40;99.90
19000;DHT22;9633;50.980;13.850;2024-03-17T06:01:06;5.50;99.90
19000;DHT22;9633;50.980;13.850;2024-03-17T06:02:37;5.50;99.90
19000;DHT22;9633;50.980;13.850;2024-03-17T06:04:09;5.60;99.90
19000;DHT22;9633;50.980;13.850;2024-03-17T06:05:42;5.60;99.90
19000;DHT22;9633;50.980;13.850;2024-03-17T06:07:13;5.70;99.90
19000;DHT22;9633;50.980;13.850;2024-03-17T06:08:45;5.70;99.90
19000;DHT22;9633;50.980;13.850;2024-03-17T06:10:16;5.70;99.90
19000;DHT22;9633;50.980;13.850;2024-03-17T06:11:48;5.70;99.90
19000;DHT22;9633;50.980;13.850;2024-03-17T06:13:22;5.60;99.90
19000;DHT22;9633;50.980;13.850;2024-03-17T06:14:55;5.70;99.90
19000;DHT22;9633;50.980;13.850;2024-03-17T06:16:26;5.70;99.90
19000;DHT22;9633;50.980;13.850;2024-03-17T06:17:58;5.70;99.90
19000;DHT22;9633;50.980;13.850;2024-03-17T06:19:32;5.70;99.90
19000;DHT22;9633;50.980;13.850;2024-03-17T06:21:05;5.80;99.90
19000;DHT22;9633;50.980;13.850;2024-03-17T06:22:36;5.90;99.90
19000;DHT22;9633;50.980;13.850;2024-03-17T06:24:08;5.90;99.90
19000;DHT22;9633;50.980;13.850;2024-03-17T06:25:41;6.00;99.90
19000;DHT22;9633;50.980;13.850;2024-03-17T06:27:12;6.00;99.90
19000;DHT22;9633;50.980;13.850;2024-03-17T06:28:47;6.00;99.90
19000;DHT22;9633;50.980;13.850;2024-03-17T06:30:18;6.00;99.90
19000;DHT22;9633;50.980;13.850;2024-03-17T06:31:50;6.00;99.90
19000;DHT22;9633;50.980;13.850;2024-03-17T06:33:21;6.00;99.90
19000;DHT22;9633;50.980;13.850;2024-03-17T06:34:53;6.00;99.90
19000;DHT22;9633;50.980;13.850;2024-03-17T06:36:25;5.90;93.60
19000;DHT22;9633;50.980;13.850;2024-03-17T06:37:59;5.90;99.40
19000;DHT22;9633;50.980;13.850;2024-03-17T06:39:30;6.00;99.90
19000;DHT22;9633;50.980;13.850;2024-03-17T06:41:03;6.10;99.90
19000;DHT22;9633;50.980;13.850;2024-03-17T06:42:34;6.10;98.30
19000;DHT22;9633;50.980;13.850;2024-03-17T06:44:07;6.10;99.50
19000;DHT22;9633;50.980;13.850;2024-03-17T06:45:38;6.10;96.10
19000;DHT22;9633;50.980;13.850;2024-03-17T06:47:10;6.10;97.40
19000;DHT22;9633;50.980;13.850;2024-03-17T06:48:41;6.10;97.20
19000;DHT22;9633;50.980;13.850;2024-03-17T06:50:14;6.30;99.90
19000;DHT22;9633;50.980;13.850;2024-03-17T06:51:45;6.30;90.50
19000;DHT22;9633;50.980;13.850;2024-03-17T06:53:19;6.40;91.00
19000;DHT22;9633;50.980;13.850;2024-03-17T06:54:50;6.50;87.20
19000;DHT22;9633;50.980;13.850;2024-03-17T06:56:22;6.60;80.90
19000;DHT22;9633;50.980;13.850;2024-03-17T06:57:53;6.50;67.50
19000;DHT22;9633;50.980;13.850;2024-03-17T06:59:26;6.40;49.90
19000;DHT22;9633;50.980;13.850;2024-03-17T07:00:59;6.50;63.20
19000;DHT22;9633;50.980;13.850;2024-03-17T07:02:31;6.50;49.40
19000;DHT22;9633;50.980;13.850;2024-03-17T07:04:03;6.60;58.10
19000;DHT22;9633;50.980;13.850;2024-03-17T07:05:36;6.70;74.10
19000;DHT22;9633;50.980;13.850;2024-03-17T07:07:07;6.80;58.90
19000;DHT22;9633;50.980;13.850;2024-03-17T07:08:39;6.70;42.40
19000;DHT22;9633;50.980;13.850;2024-03-17T07:10:13;6.70;33.70
19000;DHT22;9633;50.980;13.850;2024-03-17T07:11:44;6.80;49.50
19000;DHT22;9633;50.980;13.850;2024-03-17T07:13:16;6.80;47.40
19000;DHT22;9633;50.980;13.850;2024-03-17T07:14:51;6.70;35.40
19000;DHT22;9633;50.980;13.850;2024-03-17T07:16:23;6.60;41.00
19000;DHT22;9633;50.980;13.850;2024-03-17T07:17:56;6.70;59.50
19000;DHT22;9633;50.980;13.850;2024-03-17T07:19:28;6.80;57.60
19000;DHT22;9633;50.980;13.850;2024-03-17T07:21:02;6.90;49.60
19000;DHT22;9633;50.980;13.850;2024-03-17T07:22:35;6.90;49.30
19000;DHT22;9633;50.980;13.850;2024-03-17T07:24:07;6.90;43.30
19000;DHT22;9633;50.980;13.850;2024-03-17T07:25:39;6.90;53.90
19000;DHT22;9633;50.980;13.850;2024-03-17T07:27:10;6.80;45.80
19000;DHT22;9633;50.980;13.850;2024-03-17T07:28:44;6.70;48.80
19000;DHT22;9633;50.980;13.850;2024-03-17T07:30:17;6.80;35.80
19000;DHT22;9633;50.980;13.850;2024-03-17T07:31:49;6.60;34.70
19000;DHT22;9633;50.980;13.850;2024-03-17T07:33:21;6.70;51.60
19000;DHT22;9633;50.980;13.850;2024-03-17T07:34:53;6.90;68.40
19000;DHT22;9633;50.980;13.850;2024-03-17T07:36:25;6.90;37.40
19000;DHT22;9633;50.980;13.850;2024-03-17T07:41:13;7.00;46.20
19000;DHT22;9633;50.980;13.850;2024-03-17T07:42:46;7.00;24.50
19000;DHT22;9633;50.980;13.850;2024-03-17T07:44:17;7.00;36.20
19000;DHT22;9633;50.980;13.850;2024-03-17T07:46:00;6.90;31.10
19000;DHT22;9633;50.980;13.850;2024-03-17T07:47:32;7.10;29.60
19000;DHT22;9633;50.980;13.850;2024-03-17T07:49:06;7.10;19.80
19000;DHT22;9633;50.980;13.850;2024-03-17T07:50:37;7.30;21.00
19000;DHT22;9633;50.980;13.850;2024-03-17T07:52:09;7.50;14.50
19000;DHT22;9633;50.980;13.850;2024-03-17T07:53:43;7.60;5.50
19000;DHT22;9633;50.980;13.850;2024-03-17T07:55:16;7.40;1.50
19000;DHT22;9633;50.980;13.850;2024-03-17T07:56:47;7.40;18.40
19000;DHT22;9633;50.980;13.850;2024-03-17T07:58:19;7.20;5.00
19000;DHT22;9633;50.980;13.850;2024-03-17T07:59:50;7.30;13.30
19000;DHT22;9633;50.980;13.850;2024-03-17T08:01:24;7.40;2.00
19000;DHT22;9633;50.980;13.850;2024-03-17T08:02:55;7.60;1.00
19000;DHT22;9633;50.980;13.850;2024-03-17T08:04:27;7.70;1.00
19000;DHT22;9633;50.980;13.850;2024-03-17T08:05:59;7.90;1.00
19000;DHT22;9633;50.980;13.850;2024-03-17T08:07:32;8.00;1.00
19000;DHT22;9633;50.980;13.850;2024-03-17T08:09:03;7.90;1.00
19000;DHT22;9633;50.980;13.850;2024-03-17T08:10:37;7.90;1.00
19000;DHT22;9633;50.980;13.850;2024-03-17T08:12:08;7.90;1.00
19000;DHT22;9633;50.980;13.850;2024-03-17T08:13:40;7.70;1.00
19000;DHT22;9633;50.980;13.850;2024-03-17T08:15:11;8.10;1.00
19000;DHT22;9633;50.980;13.850;2024-03-17T08:16:46;8.20;1.00
19000;DHT22;9633;50.980;13.850;2024-03-17T08:18:17;8.50;1.00
19000;DHT22;9633;50.980;13.850;2024-03-17T08:19:49;8.30;1.00
19000;DHT22;9633;50.980;13.850;2024-03-17T08:21:20;8.40;1.00
19000;DHT22;9633;50.980;13.850;2024-03-17T08:22:52;8.50;1.00
19000;DHT22;9633;50.980;13.850;2024-03-17T08:24:23;8.50;1.00
19000;DHT22;9633;50.980;13.850;2024-03-17T08:25:56;8.60;1.00
19000;DHT22;9633;50.980;13.850;2024-03-17T08:27:27;8.60;1.00
19000;DHT22;9633;50.980;13.850;2024-03-17T08:28:59;8.40;1.00
19000;DHT22;9633;50.980;13.850;2024-03-17T08:30:30;8.10;1.00
19000;DHT22;9633;50.980;13.850;2024-03-17T08:32:05;8.10;1.00
19000;DHT22;9633;50.980;13.850;2024-03-17T08:33:36;8.20;1.00
19000;DHT22;9633;50.980;13.850;2024-03-17T08:35:08;8.50;1.00
19000;DHT22;9633;50.980;13.850;2024-03-17T08:36:40;8.80;1.00
19000;DHT22;9633;50.980;13.850;2024-03-17T08:38:12;8.80;1.00
19000;DHT22;9633;50.980;13.850;2024-03-17T08:39:45;9.10;1.00
19000;DHT22;9633;50.980;13.850;2024-03-17T08:41:17;9.30;1.00
19000;DHT22;9633;50.980;13.850;2024-03-17T08:42:49;9.70;1.00
19000;DHT22;9633;50.980;13.850;2024-03-17T08:44:20;9.90;1.00
19000;DHT22;9633;50.980;13.850;2024-03-17T08:45:55;10.00;1.00
19000;DHT22;9633;50.980;13.850;2024-03-17T08:47:30;9.60;1.00
19000;DHT22;9633;50.980;13.850;2024-03-17T08:49:02;9.30;1.00
19000;DHT22;9633;50.980;13.850;2024-03-17T08:50:34;9.50;1.00
19000;DHT22;9633;50.980;13.850;2024-03-17T08:52:06;10.10;1.00
19000;DHT22;9633;50.980;13.850;2024-03-17T08:53:38;9.70;1.00
19000;DHT22;9633;50.980;13.850;2024-03-17T08:55:10;9.30;1.00
19000;DHT22;9633;50.980;13.850;2024-03-17T08:56:44;9.10;1.00
19000;DHT22;9633;50.980;13.850;2024-03-17T08:58:18;9.70;1.00
19000;DHT22;9633;50.980;13.850;2024-03-17T08:59:49;10.30;1.00
19000;DHT22;9633;50.980;13.850;2024-03-17T09:01:23;10.40;1.00
19000;DHT22;9633;50.980;13.850;2024-03-17T09:02:56;10.30;1.00
19000;DHT22;9633;50.980;13.850;2024-03-17T09:04:29;10.30;1.00
19000;DHT22;9633;50.980;13.850;2024-03-17T09:06:00;10.70;1.00
19000;DHT22;9633;50.980;13.850;2024-03-17T09:07:32;10.50;1.00
19000;DHT22;9633;50.980;13.850;2024-03-17T09:09:03;10.30;1.00
19000;DHT22;9633;50.980;13.850;2024-03-17T09:10:39;10.90;1.00
19000;DHT22;9633;50.980;13.850;2024-03-17T09:12:10;11.30;1.00
19000;DHT22;9633;50.980;13.850;2024-03-17T09:13:42;11.00;1.00
19000;DHT22;9633;50.980;13.850;2024-03-17T09:15:14;10.80;1.00
19000;DHT22;9633;50.980;13.850;2024-03-17T09:16:46;10.30;1.00
19000;DHT22;9633;50.980;13.850;2024-03-17T09:18:19;9.90;1.00
19000;DHT22;9633;50.980;13.850;2024-03-17T09:19:51;9.60;1.00
19000;DHT22;9633;50.980;13.850;2024-03-17T09:21:22;9.90;1.00
19000;DHT22;9633;50.980;13.850;2024-03-17T09:22:55;9.30;1.00
19000;DHT22;9633;50.980;13.850;2024-03-17T09:24:26;9.00;1.00
19000;DHT22;9633;50.980;13.850;2024-03-17T09:25:59;9.00;1.00
19000;DHT22;9633;50.980;13.850;2024-03-17T09:27:31;9.10;1.00
19000;DHT22;9633;50.980;13.850;2024-03-17T09:29:04;9.90;1.00
19000;DHT22;9633;50.980;13.850;2024-03-17T09:30:36;10.40;1.00
19000;DHT22;9633;50.980;13.850;2024-03-17T09:32:08;10.00;1.00
19000;DHT22;9633;50.980;13.850;2024-03-17T09:33:44;10.70;1.00
19000;DHT22;9633;50.980;13.850;2024-03-17T09:35:16;11.20;1.00
19000;DHT22;9633;50.980;13.850;2024-03-17T09:36:47;11.00;1.00
19000;DHT22;9633;50.980;13.850;2024-03-17T09:38:19;11.20;1.00
19000;DHT22;9633;50.980;13.850;2024-03-17T09:39:50;10.70;1.00
19000;DHT22;9633;50.980;13.850;2024-03-17T09:41:24;9.60;1.00
19000;DHT22;9633;50.980;13.850;2024-03-17T09:42:55;9.00;1.00
19000;DHT22;9633;50.980;13.850;2024-03-17T09:44:28;9.00;1.00
19000;DHT22;9633;50.980;13.850;2024-03-17T09:46:02;8.80;1.00
19000;DHT22;9633;50.980;13.850;2024-03-17T09:47:34;9.40;1.00
19000;DHT22;9633;50.980;13.850;2024-03-17T09:49:10;9.50;1.00
19000;DHT22;9633;50.980;13.850;2024-03-17T09:50:51;9.30;1.00
19000;DHT22;9633;50.980;13.850;2024-03-17T09:52:25;9.60;1.00
19000;DHT22;9633;50.980;13.850;2024-03-17T09:53:56;10.70;1.00
19000;DHT22;9633;50.980;13.850;2024-03-17T09:55:30;11.90;1.00
19000;DHT22;9633;50.980;13.850;2024-03-17T09:57:01;12.50;1.00